Time;durP1;ratioP1;P1;durP2;ratioP2;P2;SDS_P1;SDS_P2;PMS_P1;PMS_P2;Temp;Humidity;BMP_temperature;BMP_pressure;BME280_temperature;BME280_humidity;BME280_pressure;Samples;Min_cycle;Max_cycle;Signal;HPM_P1;HPM_P2
2021/03/21 00:00:31;;;;;;;23.00;12.77;;;2.60;99.90;;;;;;5036042;28;20206;-78
2021/03/21 00:02:58;;;;;;;18.73;11.53;;;2.70;99.90;;;;;;5035465;28;20334;-78
2021/03/21 00:05:26;;;;;;;21.27;12.30;;;2.70;99.90;;;;;;5046036;28;20234;-78
2021/03/21 00:07:54;;;;;;;20.83;11.77;;;2.70;99.90;;;;;;5055557;28;20581;-78
2021/03/21 00:10:21;;;;;;;19.37;11.63;;;2.60;99.90;;;;;;5043359;28;20235;-77
2021/03/21 00:12:47;;;;;;;19.03;11.43;;;2.70;99.90;;;;;;5046289;28;20679;-77
2021/03/21 00:15:14;;;;;;;24.87;13.13;;;2.60;99.90;;;;;;5047384;28;20234;-77
2021/03/21 00:17:41;;;;;;;21.53;12.27;;;2.60;99.90;;;;;;5044956;28;20227;-78
2021/03/21 00:20:10;;;;;;;21.47;12.27;;;2.60;99.90;;;;;;5052966;28;20226;-77
2021/03/21 00:22:38;;;;;;;20.60;12.33;;;2.60;99.90;;;;;;5046371;28;20773;-77
2021/03/21 00:25:08;;;;;;;21.40;11.73;;;2.50;99.90;;;;;;5035306;28;20245;-77
2021/03/21 00:27:34;;;;;;;19.10;11.57;;;2.50;99.90;;;;;;5035143;28;20677;-78
2021/03/21 00:30:01;;;;;;;22.73;12.40;;;2.50;99.90;;;;;;5035928;28;20241;-78
2021/03/21 00:32:28;;;;;;;22.40;12.20;;;2.40;99.90;;;;;;5036184;28;20245;-78
2021/03/21 00:34:54;;;;;;;19.47;11.67;;;2.40;99.90;;;;;;5055129;28;20264;-78
2021/03/21 00:37:21;;;;;;;18.73;11.00;;;2.40;99.90;;;;;;5055116;28;20256;-77
2021/03/21 00:39:48;;;;;;;22.80;11.80;;;2.30;99.90;;;;;;5055167;28;20201;-77
2021/03/21 00:42:14;;;;;;;20.93;11.40;;;2.40;99.90;;;;;;5042351;28;20237;-78
2021/03/21 00:44:41;;;;;;;19.93;11.73;;;2.30;99.90;;;;;;5035549;28;20199;-77
2021/03/21 00:47:07;;;;;;;20.20;11.57;;;2.30;99.90;;;;;;5034889;28;20231;-78
2021/03/21 00:49:34;;;;;;;22.13;12.20;;;2.30;99.90;;;;;;5035346;28;20243;-77
2021/03/21 00:52:00;;;;;;;19.60;12.23;;;2.40;99.90;;;;;;5035088;28;20258;-77
2021/03/21 00:54:27;;;;;;;17.20;11.03;;;2.50;99.90;;;;;;5035368;28;20289;-78
2021/03/21 00:56:54;;;;;;;21.03;12.63;;;2.50;99.90;;;;;;5049464;28;20252;-78
2021/03/21 00:59:20;;;;;;;21.90;12.90;;;2.50;99.90;;;;;;5055130;28;20217;-77
2021/03/21 01:01:47;;;;;;;20.40;11.97;;;2.50;99.90;;;;;;5054616;28;20234;-78
2021/03/21 01:04:13;;;;;;;18.33;11.70;;;2.50;99.90;;;;;;5053406;28;20208;-77
2021/03/21 01:06:40;;;;;;;19.37;11.13;;;2.50;99.90;;;;;;5054347;28;20249;-77
2021/03/21 01:09:11;;;;;;;20.10;11.57;;;2.40;99.90;;;;;;5054934;28;20211;-78
2021/03/21 01:11:39;;;;;;;20.43;11.37;;;2.30;99.90;;;;;;5053690;28;20258;-78
2021/03/21 01:14:08;;;;;;;19.47;11.47;;;2.30;99.90;;;;;;5034625;28;20248;-77
2021/03/21 01:16:37;;;;;;;22.17;12.00;;;2.20;99.90;;;;;;5043043;28;20259;-78
2021/03/21 01:19:05;;;;;;;18.77;11.13;;;2.20;99.90;;;;;;5044971;28;20258;-78
2021/03/21 01:21:34;;;;;;;19.67;11.60;;;2.30;99.90;;;;;;5035105;28;20231;-77
2021/03/21 01:24:01;;;;;;;19.20;11.27;;;2.40;99.90;;;;;;5054124;28;20214;-77
2021/03/21 01:26:28;;;;;;;20.20;11.97;;;2.50;99.90;;;;;;5054373;28;20241;-78
2021/03/21 01:28:56;;;;;;;20.63;12.20;;;2.60;99.90;;;;;;5054240;28;20206;-78
2021/03/21 01:31:25;;;;;;;19.03;11.57;;;2.70;99.90;;;;;;5053934;28;20234;-77
2021/03/21 01:33:52;;;;;;;21.13;12.27;;;2.80;99.90;;;;;;5054576;28;20199;-78
2021/03/21 01:36:24;;;;;;;23.33;12.00;;;2.90;99.90;;;;;;5053987;28;20315;-77
2021/03/21 01:38:50;;;;;;;19.33;11.60;;;3.00;99.90;;;;;;5036907;28;20675;-77
2021/03/21 01:41:21;;;;;;;18.87;11.97;;;3.10;99.90;;;;;;5054234;28;20231;-78
2021/03/21 01:43:48;;;;;;;21.70;12.37;;;3.30;99.90;;;;;;5036714;28;20239;-77
2021/03/21 01:46:43;;;;;;;20.13;11.90;;;3.30;99.90;;;;;;5054094;28;20242;-77
2021/03/21 01:49:17;;;;;;;21.33;12.37;;;3.50;99.90;;;;;;5035703;28;20231;-77
2021/03/21 01:51:43;;;;;;;21.37;13.33;;;3.50;99.90;;;;;;5054312;28;20238;-78
2021/03/21 01:54:14;;;;;;;19.53;12.80;;;3.60;99.90;;;;;;5054067;28;20297;-78
2021/03/21 01:56:41;;;;;;;19.63;12.83;;;3.70;99.90;;;;;;5053153;28;20656;-78
2021/03/21 01:59:11;;;;;;;22.20;12.40;;;3.70;99.90;;;;;;5053113;28;20676;-77
2021/03/21 02:01:39;;;;;;;21.20;12.93;;;3.80;99.90;;;;;;5053483;28;20227;-78
2021/03/21 02:04:06;;;;;;;19.93;12.10;;;3.80;99.90;;;;;;5042364;28;20232;-77
2021/03/21 02:06:51;;;;;;;19.27;11.47;;;3.80;99.90;;;;;;5033917;28;20228;-77
2021/03/21 02:09:24;;;;;;;18.47;11.60;;;3.70;99.90;;;;;;5033484;28;20644;-77
2021/03/21 02:12:05;;;;;;;20.47;11.90;;;3.70;99.90;;;;;;5049171;28;20243;-78
2021/03/21 02:14:38;;;;;;;20.37;11.90;;;3.70;99.90;;;;;;5033580;28;20257;-77
2021/03/21 02:17:15;;;;;;;19.97;12.23;;;3.70;99.90;;;;;;5037347;28;20621;-77
2021/03/21 02:20:18;;;;;;;19.20;11.30;;;3.70;99.90;;;;;;5053062;28;20246;-78
2021/03/21 02:22:49;;;;;;;18.73;11.43;;;3.60;99.90;;;;;;5052418;28;20227;-78
2021/03/21 02:25:41;;;;;;;20.53;13.43;;;3.60;99.90;;;;;;5053072;28;20298;-78
2021/03/21 02:28:23;;;;;;;18.60;11.33;;;3.60;99.90;;;;;;5052780;28;20199;-77
2021/03/21 02:30:54;;;;;;;20.53;12.83;;;3.50;99.90;;;;;;5053295;28;20667;-78
2021/03/21 02:33:27;;;;;;;21.30;13.00;;;3.60;99.90;;;;;;5052820;28;20235;-78
2021/03/21 02:36:00;;;;;;;23.07;13.10;;;3.80;99.90;;;;;;5051945;28;20746;-78
2021/03/21 02:38:32;;;;;;;20.87;13.07;;;3.90;99.90;;;;;;5032493;28;20228;-78
2021/03/21 02:41:02;;;;;;;22.63;13.90;;;4.00;99.90;;;;;;5045702;28;20200;-78
2021/03/21 02:43:34;;;;;;;22.93;13.43;;;4.20;99.90;;;;;;5052005;28;20679;-78
2021/03/21 02:46:15;;;;;;;21.87;13.23;;;4.20;99.90;;;;;;5048103;28;20228;-78
2021/03/21 02:48:45;;;;;;;21.90;14.00;;;4.30;99.90;;;;;;5033215;28;20286;-78
2021/03/21 02:51:15;;;;;;;22.10;13.67;;;4.40;99.90;;;;;;5036749;28;20590;-78
2021/03/21 02:53:45;;;;;;;21.90;13.23;;;4.40;99.90;;;;;;5053089;28;20235;-78
2021/03/21 02:56:15;;;;;;;21.53;14.20;;;4.40;99.90;;;;;;5052591;28;20231;-77
2021/03/21 02:58:44;;;;;;;20.97;13.03;;;4.40;99.90;;;;;;5033847;28;20715;-78
2021/03/21 03:01:15;;;;;;;19.77;13.20;;;4.40;99.90;;;;;;5052564;28;20621;-77
2021/03/21 03:03:45;;;;;;;21.33;13.13;;;4.20;99.90;;;;;;5052651;28;20239;-78
2021/03/21 03:06:15;;;;;;;21.33;13.67;;;4.20;99.90;;;;;;5052336;28;20250;-78
2021/03/21 03:08:46;;;;;;;18.63;12.33;;;4.20;99.90;;;;;;5052580;28;20200;-78
2021/03/21 03:11:16;;;;;;;20.20;12.53;;;4.20;99.90;;;;;;5051436;28;20227;-78
2021/03/21 03:13:47;;;;;;;19.77;13.00;;;4.20;99.90;;;;;;5034669;28;20230;-78
2021/03/21 03:16:22;;;;;;;20.40;13.50;;;4.30;99.90;;;;;;5034490;28;20195;-78
2021/03/21 03:18:57;;;;;;;20.70;14.37;;;4.20;99.90;;;;;;5051475;28;20223;-78
2021/03/21 03:21:30;;;;;;;19.73;13.93;;;4.30;99.90;;;;;;5052073;28;20695;-78
2021/03/21 03:24:02;;;;;;;19.77;13.43;;;4.30;99.90;;;;;;5052063;28;20254;-78
2021/03/21 03:26:37;;;;;;;22.10;13.67;;;4.40;99.90;;;;;;5052043;28;20278;-78
2021/03/21 03:29:09;;;;;;;20.90;13.50;;;4.50;99.90;;;;;;5034483;28;20284;-78
2021/03/21 03:31:40;;;;;;;22.67;14.13;;;4.70;99.90;;;;;;5052249;28;20232;-78
2021/03/21 03:34:06;;;;;;;18.93;13.00;;;4.80;99.90;;;;;;5052533;28;20247;-78
2021/03/21 03:36:34;;;;;;;21.90;13.30;;;4.80;99.90;;;;;;5037328;28;20271;-78
2021/03/21 03:39:01;;;;;;;20.87;13.20;;;4.90;99.90;;;;;;5032502;28;20223;-78
2021/03/21 03:41:40;;;;;;;21.90;13.73;;;4.90;99.90;;;;;;5031461;28;20218;-78
2021/03/21 03:44:26;;;;;;;22.63;13.43;;;4.90;99.90;;;;;;5032236;28;20696;-78
2021/03/21 03:47:01;;;;;;;20.03;13.00;;;4.90;99.90;;;;;;5032033;28;20229;-78
2021/03/21 03:49:39;;;;;;;21.17;13.93;;;4.90;99.90;;;;;;5032129;28;20208;-78
2021/03/21 03:52:19;;;;;;;20.83;13.73;;;4.90;99.90;;;;;;5032095;28;20234;-78
2021/03/21 03:54:56;;;;;;;21.43;13.87;;;4.70;99.90;;;;;;5031158;28;20305;-78
2021/03/21 03:57:33;;;;;;;19.93;13.57;;;4.70;99.90;;;;;;5049419;28;20223;-78
2021/03/21 04:00:09;;;;;;;20.23;14.03;;;4.60;99.90;;;;;;5051677;28;20266;-78
2021/03/21 04:02:44;;;;;;;22.87;14.37;;;4.70;99.90;;;;;;5036663;28;20266;-78
2021/03/21 04:05:18;;;;;;;22.27;14.10;;;4.80;99.90;;;;;;5035532;28;20694;-77
2021/03/21 04:07:49;;;;;;;25.10;14.47;;;4.80;99.90;;;;;;5052146;28;20208;-78
2021/03/21 04:10:19;;;;;;;24.57;15.07;;;4.90;99.90;;;;;;5051923;28;20306;-78
2021/03/21 04:12:51;;;;;;;23.73;14.07;;;4.90;99.90;;;;;;5041384;28;20213;-78
2021/03/21 04:15:22;;;;;;;23.10;14.33;;;4.90;99.90;;;;;;5022238;28;20238;-78
2021/03/21 04:17:56;;;;;;;24.63;13.97;;;4.90;99.90;;;;;;5040392;28;20283;-78
2021/03/21 04:20:25;;;;;;;22.83;14.30;;;4.90;99.90;;;;;;5032234;28;20704;-78
2021/03/21 04:23:00;;;;;;;23.40;14.80;;;5.00;99.90;;;;;;5031611;28;20653;-78
2021/03/21 04:25:31;;;;;;;22.53;14.20;;;5.00;99.90;;;;;;5031546;28;20598;-78
2021/03/21 04:28:05;;;;;;;23.17;13.67;;;4.90;99.90;;;;;;5048076;28;20194;-78
2021/03/21 04:30:38;;;;;;;21.03;13.93;;;5.00;99.90;;;;;;5050562;28;20206;-78
2021/03/21 04:33:10;;;;;;;22.33;13.13;;;4.90;99.90;;;;;;5014820;28;20531;-78
2021/03/21 04:35:40;;;;;;;21.70;13.67;;;5.00;99.90;;;;;;5031627;28;20198;-78
2021/03/21 04:38:11;;;;;;;21.70;13.50;;;4.90;99.90;;;;;;5031609;28;20226;-78
2021/03/21 04:40:38;;;;;;;22.53;13.70;;;4.90;99.90;;;;;;5034226;28;20245;-78
2021/03/21 04:43:09;;;;;;;20.67;13.07;;;5.00;99.90;;;;;;5035755;28;20224;-78
2021/03/21 04:45:43;;;;;;;21.80;13.07;;;5.00;99.90;;;;;;5043069;28;20294;-78
2021/03/21 04:48:14;;;;;;;21.53;13.07;;;5.00;99.90;;;;;;5055409;28;20250;-78
2021/03/21 04:50:40;;;;;;;21.17;13.87;;;5.00;99.90;;;;;;5048517;28;20205;-78
2021/03/21 04:53:18;;;;;;;21.00;13.63;;;5.00;99.90;;;;;;5034912;28;20639;-78
2021/03/21 04:55:47;;;;;;;22.73;13.60;;;5.00;99.90;;;;;;5048563;28;20644;-77
2021/03/21 04:58:18;;;;;;;23.03;14.40;;;5.00;99.90;;;;;;5055084;28;20261;-77
2021/03/21 05:00:48;;;;;;;21.27;13.80;;;5.00;99.90;;;;;;5053257;28;20241;-78
2021/03/21 05:03:21;;;;;;;20.97;12.73;;;5.00;99.90;;;;;;5054659;28;20233;-78
2021/03/21 05:05:55;;;;;;;22.57;13.67;;;5.00;99.90;;;;;;5054954;28;20378;-78
2021/03/21 05:08:27;;;;;;;20.60;13.63;;;4.90;99.90;;;;;;5054607;28;20233;-78
2021/03/21 05:10:58;;;;;;;22.83;13.83;;;5.00;99.90;;;;;;5036979;28;20197;-78
2021/03/21 05:13:32;;;;;;;21.30;13.87;;;5.00;99.90;;;;;;5021488;28;20402;-78
2021/03/21 05:16:02;;;;;;;19.73;13.00;;;5.00;99.90;;;;;;5045833;28;20229;-78
2021/03/21 05:18:35;;;;;;;22.50;14.07;;;5.10;99.90;;;;;;5054095;28;20252;-78
2021/03/21 05:21:12;;;;;;;21.93;14.37;;;5.10;99.90;;;;;;5054105;28;20619;-78
2021/03/21 05:23:53;;;;;;;24.00;14.00;;;5.10;99.90;;;;;;5054030;28;20279;-78
2021/03/21 05:26:25;;;;;;;20.23;12.93;;;5.10;99.90;;;;;;5046656;28;20232;-78
2021/03/21 05:29:13;;;;;;;21.67;13.17;;;5.10;99.90;;;;;;5036291;28;20236;-78
2021/03/21 05:31:39;;;;;;;20.33;13.13;;;5.10;99.90;;;;;;5039012;28;20678;-78
2021/03/21 05:34:07;;;;;;;22.80;13.20;;;5.10;99.90;;;;;;5034263;28;20213;-78
2021/03/21 05:37:01;;;;;;;19.90;13.17;;;5.10;99.90;;;;;;5034369;28;20268;-78
2021/03/21 05:39:42;;;;;;;19.27;12.73;;;5.20;99.90;;;;;;5019089;28;20212;-79
2021/03/21 05:42:54;;;;;;;20.03;13.43;;;5.20;99.90;;;;;;5018235;28;20239;-78
2021/03/21 05:45:49;;;;;;;21.23;13.27;;;5.20;99.90;;;;;;5033242;28;20232;-78
2021/03/21 05:48:41;;;;;;;24.30;14.43;;;5.20;99.90;;;;;;5053564;28;20247;-78
2021/03/21 05:51:58;;;;;;;22.80;13.67;;;5.30;99.90;;;;;;5044758;28;20200;-78
2021/03/21 05:54:48;;;;;;;19.73;13.10;;;5.30;99.90;;;;;;5036117;28;20241;-78
2021/03/21 05:57:38;;;;;;;21.10;14.13;;;5.30;99.90;;;;;;5053131;28;20262;-78
2021/03/21 06:00:36;;;;;;;19.60;13.23;;;5.30;99.90;;;;;;5053805;28;20212;-78
2021/03/21 06:03:40;;;;;;;23.87;15.10;;;5.30;99.90;;;;;;5040371;28;20202;-78
2021/03/21 06:06:45;;;;;;;23.70;14.50;;;5.40;99.90;;;;;;5033684;28;20233;-78
2021/03/21 06:09:29;;;;;;;20.60;14.20;;;5.30;99.90;;;;;;4991784;28;20196;-78
2021/03/21 06:12:31;;;;;;;21.80;14.20;;;5.30;99.90;;;;;;4992108;28;20635;-78
2021/03/21 06:15:22;;;;;;;20.63;14.10;;;5.40;99.90;;;;;;4959914;28;20250;-78
2021/03/21 06:18:20;;;;;;;24.27;13.93;;;5.40;99.90;;;;;;4991685;28;20263;-78
2021/03/21 06:21:13;;;;;;;22.10;13.50;;;5.40;99.90;;;;;;4991836;28;20236;-78
2021/03/21 06:23:51;;;;;;;21.90;13.73;;;5.40;99.90;;;;;;4991882;28;20276;-78
2021/03/21 06:26:23;;;;;;;22.17;14.27;;;5.50;99.90;;;;;;4991779;28;20295;-78
2021/03/21 06:29:04;;;;;;;22.33;14.70;;;5.50;99.90;;;;;;4991900;28;20240;-78
2021/03/21 06:31:55;;;;;;;22.07;14.20;;;5.50;99.90;;;;;;4975603;28;20707;-78
2021/03/21 06:34:32;;;;;;;20.87;14.07;;;5.60;99.90;;;;;;4991500;28;20236;-78
2021/03/21 06:37:01;;;;;;;23.33;15.10;;;5.60;99.90;;;;;;4991628;28;20227;-79
2021/03/21 06:39:57;;;;;;;25.00;14.77;;;5.70;99.90;;;;;;4991580;28;20243;-78
2021/03/21 06:42:47;;;;;;;22.27;13.60;;;5.70;99.90;;;;;;4977034;28;20309;-79
2021/03/21 06:45:50;;;;;;;20.90;13.00;;;5.70;99.90;;;;;;4996829;28;20236;-78
2021/03/21 06:48:43;;;;;;;20.83;13.40;;;5.70;99.90;;;;;;5033121;28;20214;-78
2021/03/21 06:51:20;;;;;;;20.53;13.53;;;5.80;99.90;;;;;;5030238;28;20204;-78
2021/03/21 06:53:58;;;;;;;22.43;13.87;;;5.80;99.90;;;;;;5033370;28;20662;-78
2021/03/21 06:57:07;;;;;;;19.53;13.23;;;5.80;99.90;;;;;;5034894;28;20253;-78
2021/03/21 07:00:18;;;;;;;20.80;14.50;;;5.90;99.90;;;;;;4990290;28;20271;-78
2021/03/21 07:03:31;;;;;;;19.47;12.83;;;5.90;99.90;;;;;;4981147;28;20219;-78
2021/03/21 07:06:46;;;;;;;20.23;13.00;;;6.00;99.90;;;;;;4985999;28;20586;-78
2021/03/21 07:09:48;;;;;;;20.70;13.20;;;6.00;99.90;;;;;;4972283;28;20242;-78
2021/03/21 07:12:32;;;;;;;22.03;13.63;;;6.00;99.90;;;;;;4977108;28;20253;-78
2021/03/21 07:15:30;;;;;;;22.10;13.53;;;6.10;99.90;;;;;;4991196;28;20243;-78
2021/03/21 07:18:48;;;;;;;23.80;13.70;;;6.10;99.90;;;;;;4973555;28;20300;-78
2021/03/21 07:21:51;;;;;;;21.33;13.40;;;6.10;99.90;;;;;;4987959;28;20295;-79
2021/03/21 07:24:58;;;;;;;22.33;13.40;;;6.10;99.90;;;;;;4973081;28;20211;-79
2021/03/21 07:28:02;;;;;;;22.47;14.00;;;6.10;99.90;;;;;;4949950;29;20687;-78
2021/03/21 07:30:42;;;;;;;21.00;13.53;;;6.20;99.90;;;;;;4913801;29;20290;-78
2021/03/21 07:33:25;;;;;;;20.87;13.50;;;6.20;99.90;;;;;;4913942;29;20244;-79
2021/03/21 07:35:57;;;;;;;20.90;13.60;;;6.30;99.90;;;;;;4922859;28;20248;-79
2021/03/21 07:38:37;;;;;;;22.03;13.87;;;6.30;99.90;;;;;;4971324;28;20230;-78
2021/03/21 07:41:14;;;;;;;20.30;13.53;;;6.40;99.90;;;;;;4971549;28;20237;-78
2021/03/21 07:44:01;;;;;;;21.17;13.27;;;6.50;99.90;;;;;;4954089;28;20261;-79
2021/03/21 07:47:19;;;;;;;21.97;13.53;;;6.60;99.90;;;;;;4939802;28;20807;-79
2021/03/21 07:50:02;;;;;;;25.07;14.10;;;6.60;99.90;;;;;;4932792;29;20657;-79
2021/03/21 07:52:51;;;;;;;22.97;14.30;;;6.60;99.90;;;;;;4932602;29;20722;-79
2021/03/21 07:55:22;;;;;;;22.53;14.47;;;6.60;99.90;;;;;;4923718;29;20709;-78
2021/03/21 07:58:01;;;;;;;22.40;14.10;;;6.70;99.90;;;;;;4913960;29;20260;-79
2021/03/21 08:00:28;;;;;;;22.43;14.23;;;6.70;99.90;;;;;;4891723;29;20371;-80
2021/03/21 08:03:17;;;;;;;23.13;14.47;;;6.80;99.90;;;;;;4896561;29;20219;-80
2021/03/21 08:05:43;;;;;;;22.40;13.97;;;6.90;99.90;;;;;;4951728;29;20257;-78
2021/03/21 08:08:14;;;;;;;23.70;14.37;;;7.00;99.90;;;;;;4955116;28;20243;-81
2021/03/21 08:10:42;;;;;;;21.57;14.07;;;7.00;99.90;;;;;;4971246;28;20576;-80
2021/03/21 08:13:17;;;;;;;22.73;14.43;;;7.10;99.90;;;;;;4970278;28;20304;-78
2021/03/21 08:15:44;;;;;;;23.60;15.20;;;7.20;99.90;;;;;;4973350;28;20225;-78
2021/03/21 08:18:16;;;;;;;24.23;15.00;;;7.30;99.90;;;;;;4974481;28;20238;-78
2021/03/21 08:20:50;;;;;;;24.87;14.10;;;7.40;99.90;;;;;;5015965;28;20610;-78
2021/03/21 08:23:22;;;;;;;23.33;14.87;;;7.50;99.90;;;;;;5035843;28;20238;-78
2021/03/21 08:25:50;;;;;;;24.37;14.57;;;7.60;99.90;;;;;;5044914;28;20588;-78
2021/03/21 08:28:20;;;;;;;24.40;14.70;;;7.60;99.90;;;;;;5055440;28;20201;-78
2021/03/21 08:30:50;;;;;;;24.37;14.53;;;7.70;99.90;;;;;;5054149;28;20206;-78
2021/03/21 08:33:30;;;;;;;24.30;14.80;;;7.80;99.90;;;;;;5055446;28;20228;-77
2021/03/21 08:36:17;;;;;;;24.90;14.87;;;7.80;99.90;;;;;;5055336;28;20214;-78
2021/03/21 08:39:00;;;;;;;25.57;14.73;;;7.90;99.90;;;;;;5054706;28;20233;-78
2021/03/21 08:41:29;;;;;;;23.67;14.57;;;8.00;99.90;;;;;;5055205;28;20205;-79
2021/03/21 08:44:01;;;;;;;24.30;14.83;;;8.10;99.90;;;;;;5052301;28;20215;-80
2021/03/21 08:46:29;;;;;;;22.90;15.27;;;8.20;99.90;;;;;;5055001;28;20212;-80
2021/03/21 08:49:06;;;;;;;26.33;14.90;;;8.20;99.90;;;;;;5034795;28;20197;-80
2021/03/21 08:51:40;;;;;;;27.43;15.97;;;8.20;99.90;;;;;;5045436;28;20199;-79
2021/03/21 08:54:15;;;;;;;26.10;16.53;;;8.30;99.90;;;;;;5055040;28;20259;-80
2021/03/21 08:57:02;;;;;;;28.23;15.60;;;8.30;99.90;;;;;;5054575;28;20689;-79
2021/03/21 08:59:37;;;;;;;28.63;16.23;;;8.30;99.90;;;;;;5054152;28;20199;-80
2021/03/21 09:02:10;;;;;;;28.73;16.47;;;8.40;99.90;;;;;;5048864;28;20223;-79
2021/03/21 09:04:41;;;;;;;27.60;17.80;;;8.50;99.90;;;;;;5054553;28;20253;-80
2021/03/21 09:07:23;;;;;;;29.67;17.97;;;8.60;99.90;;;;;;5052081;28;20697;-79
2021/03/21 09:10:22;;;;;;;29.30;16.73;;;8.60;99.90;;;;;;5052484;28;20663;-80
2021/03/21 09:12:50;;;;;;;26.13;16.00;;;8.70;99.90;;;;;;5053804;28;20237;-80
2021/03/21 09:15:31;;;;;;;28.10;16.23;;;8.60;99.90;;;;;;5049200;28;20576;-80
2021/03/21 09:18:13;;;;;;;27.07;15.83;;;8.70;99.90;;;;;;5046396;28;20252;-80
2021/03/21 09:20:43;;;;;;;28.20;16.73;;;8.90;99.90;;;;;;5053861;28;20235;-80
2021/03/21 09:23:42;;;;;;;28.20;15.43;;;8.90;99.90;;;;;;5043378;28;20266;-80
2021/03/21 09:26:29;;;;;;;25.43;15.47;;;8.90;99.90;;;;;;5050103;28;20240;-80
2021/03/21 09:29:01;;;;;;;26.57;16.20;;;8.90;99.90;;;;;;5046099;28;20214;-80
2021/03/21 09:31:29;;;;;;;29.33;16.97;;;8.90;99.90;;;;;;5042972;28;20271;-80
2021/03/21 09:34:01;;;;;;;27.47;15.83;;;8.90;99.90;;;;;;5043684;28;20693;-80
2021/03/21 09:36:34;;;;;;;32.27;17.23;;;9.00;99.90;;;;;;5044483;28;20199;-80
2021/03/21 09:39:05;;;;;;;27.03;16.83;;;9.10;99.90;;;;;;5051025;28;20219;-79
2021/03/21 09:41:32;;;;;;;26.50;16.23;;;9.20;99.90;;;;;;5046790;28;20274;-78
2021/03/21 09:44:03;;;;;;;26.80;16.33;;;9.20;99.90;;;;;;5052179;28;20206;-78
2021/03/21 09:46:47;;;;;;;26.23;16.77;;;9.40;99.90;;;;;;5051482;28;20687;-79
2021/03/21 09:49:19;;;;;;;29.50;16.93;;;9.40;99.90;;;;;;5046295;28;20202;-79
2021/03/21 09:51:51;;;;;;;24.83;16.23;;;9.50;99.90;;;;;;5051402;28;20202;-81
2021/03/21 09:54:37;;;;;;;29.40;17.50;;;9.50;99.90;;;;;;5047790;28;20268;-81
2021/03/21 09:57:31;;;;;;;26.07;16.60;;;9.50;99.90;;;;;;5037312;28;20221;-81
2021/03/21 10:00:01;;;;;;;26.27;16.27;;;9.50;99.90;;;;;;5046215;28;20741;-81
2021/03/21 10:02:37;;;;;;;27.97;16.60;;;9.70;99.90;;;;;;5047585;28;20202;-81
2021/03/21 10:05:09;;;;;;;25.57;16.53;;;10.00;99.90;;;;;;5046342;28;20261;-80
2021/03/21 10:07:43;;;;;;;24.17;15.90;;;10.00;99.90;;;;;;5032874;28;20227;-81
2021/03/21 10:10:19;;;;;;;26.17;17.03;;;10.10;99.90;;;;;;5043062;28;20207;-81
2021/03/21 10:12:47;;;;;;;23.27;15.80;;;10.10;99.90;;;;;;5024796;28;20258;-80
2021/03/21 10:15:17;;;;;;;30.60;16.67;;;10.20;99.90;;;;;;5046063;28;20552;-80
2021/03/21 10:17:48;;;;;;;24.33;16.90;;;10.50;99.90;;;;;;5027112;28;20688;-81
2021/03/21 10:20:16;;;;;;;25.13;16.40;;;10.40;99.90;;;;;;5041381;28;20675;-81
2021/03/21 10:22:59;;;;;;;24.10;16.33;;;10.40;99.90;;;;;;5047732;28;20232;-80
2021/03/21 10:26:06;;;;;;;25.10;16.33;;;10.30;99.90;;;;;;5046251;28;20235;-80
2021/03/21 10:28:49;;;;;;;23.77;16.07;;;10.40;99.90;;;;;;5051529;28;20204;-83
2021/03/21 10:31:40;;;;;;;23.67;16.10;;;10.50;99.90;;;;;;5050261;28;20199;-87
2021/03/21 10:34:40;;;;;;;25.33;16.30;;;10.50;99.90;;;;;;5043810;28;20548;-87
2021/03/21 10:40:42;;;;;;;25.07;16.60;;;10.00;99.90;;;;;;5006642;28;20208;-84
2021/03/21 10:43:42;;;;;;;23.33;16.53;;;10.00;99.90;;;;;;5004807;28;20228;-85
2021/03/21 10:46:09;;;;;;;23.53;16.57;;;10.20;99.90;;;;;;4991381;28;20776;-85
2021/03/21 10:48:53;;;;;;;23.47;16.03;;;10.40;99.90;;;;;;5000742;28;20213;-85
2021/03/21 10:51:19;;;;;;;24.47;16.70;;;10.60;99.90;;;;;;4999545;28;20299;-85
2021/03/21 10:54:23;;;;;;;21.67;15.47;;;10.70;99.90;;;;;;5004573;28;20206;-85
2021/03/21 10:57:24;;;;;;;23.10;15.73;;;10.70;99.90;;;;;;4998469;28;20624;-85
2021/03/21 11:00:19;;;;;;;23.20;15.33;;;10.90;99.90;;;;;;5000402;28;20201;-85
2021/03/21 11:02:49;;;;;;;19.77;14.00;;;10.90;99.90;;;;;;4957266;28;20703;-85
2021/03/21 11:05:29;;;;;;;21.57;16.10;;;10.90;99.90;;;;;;4968866;28;20210;-85
2021/03/21 11:08:09;;;;;;;18.33;13.97;;;11.00;99.90;;;;;;4961323;28;20202;-85
2021/03/21 11:10:40;;;;;;;18.70;14.20;;;11.00;99.90;;;;;;4964398;28;20243;-86
2021/03/21 11:13:10;;;;;;;18.80;13.83;;;11.00;99.90;;;;;;4959959;28;20195;-86
2021/03/21 11:15:39;;;;;;;18.00;13.60;;;11.00;99.90;;;;;;4958910;28;20664;-85
2021/03/21 11:18:16;;;;;;;20.77;13.47;;;11.30;99.90;;;;;;4984987;28;20704;-86
2021/03/21 11:20:43;;;;;;;17.00;12.57;;;11.40;99.90;;;;;;4977255;28;20643;-85
2021/03/21 11:23:16;;;;;;;17.50;13.40;;;11.30;99.90;;;;;;4992607;28;20840;-86
2021/03/21 11:25:43;;;;;;;17.03;13.20;;;10.90;99.90;;;;;;4992133;28;20306;-85
2021/03/21 11:28:27;;;;;;;20.43;13.93;;;11.00;99.90;;;;;;4992310;28;20236;-84
2021/03/21 11:30:56;;;;;;;19.03;12.83;;;11.00;99.90;;;;;;4992996;28;20210;-85
2021/03/21 11:33:35;;;;;;;15.80;13.23;;;11.10;99.90;;;;;;4992217;28;20210;-85
2021/03/21 11:36:23;;;;;;;18.73;12.83;;;11.30;99.90;;;;;;4990560;28;20218;-85
2021/03/21 11:38:51;;;;;;;16.50;12.10;;;11.50;99.90;;;;;;5032320;28;20240;-85
2021/03/21 11:41:25;;;;;;;17.37;12.73;;;11.60;99.90;;;;;;5052254;28;20227;-85
2021/03/21 11:43:52;;;;;;;16.33;12.20;;;11.60;99.90;;;;;;5053361;28;20196;-85
2021/03/21 11:46:29;;;;;;;14.70;11.90;;;11.20;99.90;;;;;;5051745;28;20200;-85
2021/03/21 11:48:57;;;;;;;16.20;11.23;;;11.00;99.90;;;;;;5055496;28;20228;-86
2021/03/21 11:51:25;;;;;;;14.47;11.30;;;11.00;99.90;;;;;;5055959;28;20277;-86
2021/03/21 11:53:52;;;;;;;12.93;11.53;;;11.20;99.90;;;;;;5047166;28;20264;-85
2021/03/21 11:56:25;;;;;;;13.50;10.57;;;11.10;99.90;;;;;;5057738;28;20204;-85
2021/03/21 11:58:57;;;;;;;13.73;11.23;;;11.10;99.90;;;;;;5057622;28;20229;-85
2021/03/21 12:01:32;;;;;;;14.00;11.33;;;10.90;99.90;;;;;;5057887;28;20577;-85
2021/03/21 12:04:02;;;;;;;14.33;10.90;;;10.90;99.90;;;;;;5057696;28;20627;-85
2021/03/21 12:06:33;;;;;;;16.43;11.90;;;10.90;99.90;;;;;;5057544;28;20197;-85
2021/03/21 12:09:12;;;;;;;14.23;11.60;;;10.90;99.90;;;;;;5056035;28;20286;-85
2021/03/21 12:11:40;;;;;;;15.33;11.20;;;11.00;99.90;;;;;;5056739;28;20212;-85
2021/03/21 12:14:43;;;;;;;15.07;11.37;;;11.00;99.90;;;;;;5057386;28;20580;-85
2021/03/21 12:17:41;;;;;;;11.67;9.87;;;10.90;99.90;;;;;;5027110;28;20590;-85
2021/03/21 12:20:41;;;;;;;13.93;10.40;;;10.90;99.90;;;;;;5013775;28;20209;-85
2021/03/21 12:23:24;;;;;;;12.20;10.37;;;11.10;99.90;;;;;;5002527;28;20756;-85
2021/03/21 12:26:19;;;;;;;14.13;10.50;;;11.00;99.90;;;;;;5004719;28;20232;-85
2021/03/21 12:28:58;;;;;;;13.07;10.23;;;11.00;99.90;;;;;;5009001;28;20205;-85
2021/03/21 12:31:35;;;;;;;12.43;9.87;;;10.90;99.90;;;;;;5011472;28;20227;-85
2021/03/21 12:34:24;;;;;;;10.80;8.97;;;11.00;99.90;;;;;;5007541;28;20689;-85
2021/03/21 12:37:04;;;;;;;12.77;9.57;;;11.10;99.90;;;;;;5001746;28;20213;-85
2021/03/21 12:39:32;;;;;;;12.27;9.27;;;11.20;99.90;;;;;;5013561;28;20204;-85
2021/03/21 12:41:59;;;;;;;13.00;9.73;;;11.00;99.90;;;;;;5001997;28;20195;-85
2021/03/21 12:44:28;;;;;;;12.57;9.80;;;11.00;99.90;;;;;;5005986;28;20202;-85
2021/03/21 12:47:02;;;;;;;11.27;9.07;;;11.00;99.90;;;;;;5002001;28;20212;-85
2021/03/21 12:49:45;;;;;;;11.87;8.80;;;11.10;99.90;;;;;;5005932;28;20205;-85
2021/03/21 12:52:15;;;;;;;11.50;9.97;;;11.20;99.90;;;;;;4997709;28;20212;-85
2021/03/21 12:54:45;;;;;;;12.80;10.60;;;11.40;99.90;;;;;;5034916;28;20208;-85
2021/03/21 12:57:13;;;;;;;11.90;10.07;;;11.50;99.90;;;;;;5056024;28;20628;-85
2021/03/21 12:59:45;;;;;;;12.73;8.67;;;11.40;99.90;;;;;;5057124;28;20218;-85
2021/03/21 13:02:30;;;;;;;11.13;9.27;;;11.20;99.90;;;;;;5056628;28;20208;-85
2021/03/21 13:04:59;;;;;;;10.13;8.90;;;11.30;99.90;;;;;;5056299;28;20575;-85
2021/03/21 13:07:27;;;;;;;11.00;8.40;;;11.40;99.90;;;;;;5046209;28;20212;-85
2021/03/21 13:09:54;;;;;;;11.07;9.17;;;11.30;99.90;;;;;;5056390;28;20224;-86
2021/03/21 13:12:22;;;;;;;10.80;8.43;;;11.40;99.90;;;;;;5053047;28;20290;-85
2021/03/21 13:14:49;;;;;;;12.00;8.77;;;11.60;99.90;;;;;;5054391;28;20588;-85
2021/03/21 13:17:16;;;;;;;9.17;7.80;;;11.50;99.90;;;;;;5053851;28;20273;-85
2021/03/21 13:19:43;;;;;;;9.63;7.30;;;11.30;99.90;;;;;;5037114;28;20213;-85
2021/03/21 13:22:11;;;;;;;8.43;7.47;;;11.00;99.90;;;;;;5053235;28;20234;-85
2021/03/21 13:24:37;;;;;;;10.07;7.60;;;11.00;99.90;;;;;;5054512;28;20221;-86
2021/03/21 13:27:05;;;;;;;10.07;8.00;;;10.80;99.90;;;;;;5051165;28;20257;-85